Time;durP1;ratioP1;P1;durP2;ratioP2;P2;SDS_P1;SDS_P2;PMS_P1;PMS_P2;Temp;Humidity;BMP_temperature;BMP_pressure;BME280_temperature;BME280_humidity;BME280_pressure;Samples;Min_cycle;Max_cycle;Signal;HPM_P1;HPM_P2
2022/01/16 00:04:38;;;;;;;19.77;15.02;;;17.10;48.80;;;;;;4911288;28;93238;-74
2022/01/16 00:07:04;;;;;;;18.67;14.85;;;17.10;49.80;;;;;;4911466;28;92520;-74
2022/01/16 00:09:31;;;;;;;18.95;15.50;;;17.10;48.70;;;;;;4911635;28;92021;-75
2022/01/16 00:12:00;;;;;;;20.88;15.10;;;17.10;48.70;;;;;;4910983;28;92996;-74
2022/01/16 00:14:26;;;;;;;19.60;15.07;;;17.10;48.70;;;;;;4911607;28;92824;-74
2022/01/16 00:16:52;;;;;;;20.70;15.50;;;17.10;48.70;;;;;;4910726;28;95312;-74
2022/01/16 00:19:17;;;;;;;20.02;15.38;;;17.10;48.70;;;;;;4912041;28;93119;-74
2022/01/16 00:21:45;;;;;;;20.45;15.40;;;17.10;48.70;;;;;;4911169;28;92970;-74
2022/01/16 00:24:11;;;;;;;18.55;14.63;;;17.10;48.70;;;;;;4911655;28;92811;-74
2022/01/16 00:26:38;;;;;;;21.30;15.50;;;17.10;48.70;;;;;;4911736;28;93386;-74
2022/01/16 00:29:07;;;;;;;19.77;14.52;;;17.10;48.70;;;;;;4912339;28;92866;-73
2022/01/16 00:31:37;;;;;;;21.98;15.60;;;17.10;48.60;;;;;;4912063;28;93996;-74
2022/01/16 00:34:03;;;;;;;21.08;15.15;;;17.10;48.70;;;;;;4913373;28;93546;-74
2022/01/16 00:36:29;;;;;;;22.55;15.63;;;17.10;48.70;;;;;;4913215;28;92735;-73
2022/01/16 00:38:57;;;;;;;22.20;16.40;;;17.10;48.70;;;;;;4913274;28;92523;-74
2022/01/16 00:41:23;;;;;;;21.50;16.05;;;17.10;48.70;;;;;;4909588;28;96002;-74
2022/01/16 00:43:50;;;;;;;22.23;15.57;;;17.10;48.60;;;;;;4910596;28;96411;-74
2022/01/16 00:46:16;;;;;;;19.77;14.70;;;17.10;48.60;;;;;;4911111;28;92893;-74
2022/01/16 00:48:42;;;;;;;20.90;15.27;;;17.10;48.50;;;;;;4911843;28;92827;-74
2022/01/16 00:51:08;;;;;;;20.30;14.55;;;17.10;48.50;;;;;;4910993;28;94058;-74
2022/01/16 00:53:34;;;;;;;23.33;15.32;;;17.10;48.50;;;;;;4911352;28;93026;-74
2022/01/16 00:56:00;;;;;;;21.35;16.17;;;17.00;48.50;;;;;;4911573;28;92573;-74
2022/01/16 00:58:25;;;;;;;22.35;15.80;;;17.00;48.50;;;;;;4915130;28;92212;-73
2022/01/16 01:00:51;;;;;;;20.55;15.70;;;17.00;48.50;;;;;;4914190;28;94147;-74
2022/01/16 01:03:18;;;;;;;22.80;15.43;;;17.00;48.50;;;;;;4913662;28;93979;-74
2022/01/16 01:05:45;;;;;;;23.42;16.27;;;17.00;48.50;;;;;;4913271;28;95106;-74
2022/01/16 01:08:11;;;;;;;21.92;15.90;;;17.00;48.50;;;;;;4914868;28;92611;-74
2022/01/16 01:10:39;;;;;;;23.33;16.25;;;17.00;48.50;;;;;;4913882;28;93047;-75
2022/01/16 01:13:10;;;;;;;21.58;15.80;;;17.00;48.50;;;;;;4914724;28;92956;-74
2022/01/16 01:15:47;;;;;;;22.98;16.25;;;17.00;48.50;;;;;;4914320;28;92972;-73
2022/01/16 01:18:13;;;;;;;23.75;15.95;;;17.00;48.60;;;;;;4914839;28;92505;-74
2022/01/16 01:20:41;;;;;;;23.17;15.85;;;17.00;48.50;;;;;;4913917;28;93934;-74
2022/01/16 01:23:07;;;;;;;23.45;16.45;;;17.00;48.50;;;;;;4913555;28;93219;-73
2022/01/16 01:25:34;;;;;;;22.02;15.38;;;17.00;48.50;;;;;;4913792;28;93074;-73
2022/01/16 01:27:59;;;;;;;23.38;15.68;;;17.00;48.50;;;;;;4915219;28;92942;-74
2022/01/16 01:30:25;;;;;;;21.65;15.57;;;17.00;48.60;;;;;;4912962;28;96014;-75
2022/01/16 01:32:53;;;;;;;23.73;16.35;;;17.00;48.50;;;;;;4913017;28;95118;-74
2022/01/16 01:35:19;;;;;;;22.23;15.75;;;16.90;48.50;;;;;;4913960;28;92545;-74
2022/01/16 01:37:45;;;;;;;23.15;15.98;;;17.00;48.50;;;;;;4913505;28;93096;-76
2022/01/16 01:40:17;;;;;;;24.73;17.05;;;16.90;48.50;;;;;;4913354;28;93075;-74
2022/01/16 01:43:01;;;;;;;24.98;17.40;;;16.90;48.50;;;;;;4913249;28;92916;-74
2022/01/16 01:51:16;;;;;;;25.17;16.95;;;16.90;48.60;;;;;;4913550;28;93242;-74
2022/01/16 01:53:43;;;;;;;24.42;16.25;;;16.90;48.60;;;;;;4913923;28;93148;-74
2022/01/16 01:56:11;;;;;;;25.40;16.90;;;16.90;48.50;;;;;;4912558;28;94997;-74
2022/01/16 01:58:38;;;;;;;25.40;16.92;;;16.90;48.50;;;;;;4912854;28;92689;-75
2022/01/16 02:01:05;;;;;;;23.98;16.48;;;16.90;48.50;;;;;;4912356;28;96101;-74
2022/01/16 02:03:42;;;;;;;23.80;16.50;;;16.90;48.40;;;;;;4912537;28;93202;-74
2022/01/16 02:06:16;;;;;;;24.90;17.55;;;16.90;48.50;;;;;;4913026;28;92862;-75
2022/01/16 02:08:44;;;;;;;24.02;16.35;;;16.90;48.50;;;;;;4913654;28;92853;-72
2022/01/16 02:11:15;;;;;;;24.17;16.42;;;16.90;48.50;;;;;;4913033;28;92902;-74
2022/01/16 02:13:56;;;;;;;25.30;17.08;;;16.90;48.50;;;;;;4912548;28;92750;-74
2022/01/16 02:28:42;;;;;;;25.88;16.85;;;16.90;48.50;;;;;;4913632;28;93166;-74
2022/01/16 02:31:02;;;;;;;26.17;17.58;;;16.90;48.50;;;;;;4907896;28;92535;-74
2022/01/16 02:36:29;;;;;;;26.35;17.10;;;16.80;48.50;;;;;;4912536;28;93263;-74
2022/01/16 02:39:11;;;;;;;25.63;17.55;;;16.80;48.50;;;;;;4913656;28;93087;-74
2022/01/16 02:41:37;;;;;;;25.95;17.80;;;16.80;48.50;;;;;;4913296;28;92264;-73
2022/01/16 02:44:14;;;;;;;24.75;17.60;;;16.80;48.40;;;;;;4912699;28;92952;-74
2022/01/16 02:46:39;;;;;;;25.25;17.48;;;16.90;48.50;;;;;;4913293;28;93513;-74
2022/01/16 02:49:17;;;;;;;25.55;17.42;;;16.90;48.50;;;;;;4911940;28;95518;-74
2022/01/16 02:51:42;;;;;;;22.13;16.10;;;16.90;48.40;;;;;;4913787;28;92974;-74
2022/01/16 02:54:08;;;;;;;24.85;16.85;;;16.90;48.50;;;;;;4912882;28;93221;-74
2022/01/16 02:56:35;;;;;;;24.85;17.00;;;16.90;48.40;;;;;;4912332;28;93730;-74
2022/01/16 02:59:01;;;;;;;24.77;16.05;;;16.90;48.30;;;;;;4912159;28;93213;-75
2022/01/16 03:01:26;;;;;;;25.15;16.52;;;17.00;48.40;;;;;;4913002;28;92865;-74
2022/01/16 03:03:52;;;;;;;24.73;16.98;;;17.00;48.40;;;;;;4911787;28;93127;-74
2022/01/16 03:06:17;;;;;;;26.60;17.70;;;17.00;48.30;;;;;;4912628;28;94085;-74
2022/01/16 03:08:43;;;;;;;26.05;17.17;;;17.00;48.20;;;;;;4911745;28;92747;-74
2022/01/16 03:13:47;;;;;;;25.15;16.45;;;17.10;48.10;;;;;;4910965;28;95509;-74
2022/01/16 03:16:17;;;;;;;25.90;16.30;;;17.10;48.00;;;;;;4911334;28;96313;-74
2022/01/16 03:24:12;;;;;;;25.02;16.73;;;17.10;48.20;;;;;;4911942;28;93397;-74
2022/01/16 03:26:38;;;;;;;24.88;16.67;;;17.10;48.20;;;;;;4911853;28;93200;-74
2022/01/16 03:29:04;;;;;;;25.77;16.23;;;17.10;48.10;;;;;;4911383;28;92533;-74
2022/01/16 03:31:29;;;;;;;24.70;16.88;;;17.10;48.10;;;;;;4912132;28;92104;-74
2022/01/16 03:33:55;;;;;;;24.10;16.95;;;17.10;48.20;;;;;;4912683;28;93819;-73
2022/01/16 03:36:23;;;;;;;27.42;17.15;;;17.10;48.10;;;;;;4914045;28;93012;-75
2022/01/16 03:38:57;;;;;;;25.10;16.75;;;17.10;48.10;;;;;;4915832;28;95015;-74
2022/01/16 03:41:27;;;;;;;21.75;15.60;;;17.10;48.10;;;;;;4915783;28;92435;-74
2022/01/16 03:43:58;;;;;;;23.55;16.13;;;17.10;48.20;;;;;;4911423;28;94788;-74
2022/01/16 03:46:24;;;;;;;26.15;17.05;;;17.10;48.20;;;;;;4911890;28;93914;-74
2022/01/16 03:48:50;;;;;;;25.42;17.52;;;17.10;48.20;;;;;;4912149;28;92842;-74
2022/01/16 03:51:15;;;;;;;25.67;16.40;;;17.10;48.20;;;;;;4910990;28;92751;-74
2022/01/16 03:53:44;;;;;;;24.90;16.73;;;17.10;48.10;;;;;;4911730;28;94233;-74
2022/01/16 03:56:09;;;;;;;26.30;17.40;;;17.10;48.10;;;;;;4911999;28;95396;-74
2022/01/16 03:58:37;;;;;;;25.08;16.42;;;17.10;48.20;;;;;;4912352;28;93039;-74
2022/01/16 05:43:43;;;;;;;23.40;15.32;;;18.50;46.00;;;;;;5008242;23;94954;-74
2022/01/16 05:46:08;;;;;;;23.30;15.88;;;18.50;46.20;;;;;;4972850;28;91868;-74
2022/01/16 05:48:34;;;;;;;22.52;14.98;;;18.50;46.20;;;;;;4972247;28;92929;-73
2022/01/16 05:51:00;;;;;;;22.92;15.30;;;18.50;46.30;;;;;;4972041;28;92937;-74
2022/01/16 05:53:26;;;;;;;23.98;16.05;;;18.50;46.30;;;;;;4970213;28;95683;-73
2022/01/16 05:55:51;;;;;;;22.67;15.15;;;18.50;46.40;;;;;;4971521;28;98602;-74
2022/01/16 05:58:17;;;;;;;23.27;15.27;;;18.40;46.40;;;;;;4972313;28;93009;-74
2022/01/16 06:00:44;;;;;;;23.65;15.75;;;18.50;46.40;;;;;;4971025;28;94342;-74
2022/01/16 06:03:10;;;;;;;24.38;15.32;;;18.40;46.40;;;;;;4971893;28;93588;-74
2022/01/16 06:05:36;;;;;;;22.40;15.10;;;18.40;46.50;;;;;;4970008;28;95543;-74
2022/01/16 06:08:08;;;;;;;24.83;16.08;;;18.40;46.50;;;;;;4971436;28;92583;-74
2022/01/16 06:10:34;;;;;;;21.25;14.80;;;18.50;46.60;;;;;;4971969;28;91814;-74
2022/01/16 06:12:59;;;;;;;23.30;15.13;;;18.40;46.50;;;;;;4971307;28;93677;-74
2022/01/16 06:15:25;;;;;;;23.98;15.63;;;18.40;46.60;;;;;;4970966;28;92820;-74
2022/01/16 06:17:51;;;;;;;22.00;15.20;;;18.40;46.60;;;;;;4969746;28;95103;-74
2022/01/16 06:20:17;;;;;;;23.58;14.90;;;18.50;46.60;;;;;;4971180;28;92720;-74
2022/01/16 06:22:43;;;;;;;21.83;14.82;;;18.50;46.60;;;;;;4970744;28;93066;-74
2022/01/16 06:25:10;;;;;;;23.40;15.95;;;18.50;46.60;;;;;;4970813;28;92937;-74
2022/01/16 06:27:36;;;;;;;23.75;14.82;;;18.50;46.60;;;;;;4971478;28;93334;-73
2022/01/16 06:30:07;;;;;;;25.20;15.60;;;18.40;46.60;;;;;;4970832;28;92537;-73
2022/01/16 06:32:33;;;;;;;21.75;15.15;;;18.50;46.80;;;;;;4970974;28;93142;-74
2022/01/16 06:34:59;;;;;;;24.65;15.25;;;18.40;46.80;;;;;;4971478;28;92784;-74
2022/01/16 06:37:24;;;;;;;22.92;14.70;;;18.30;47.00;;;;;;4972267;28;92934;-74
2022/01/16 06:39:51;;;;;;;22.80;15.40;;;18.30;47.10;;;;;;4972140;28;93089;-75
2022/01/16 06:42:17;;;;;;;22.60;14.57;;;18.30;47.30;;;;;;4969643;28;96038;-75
2022/01/16 06:44:43;;;;;;;27.02;16.02;;;18.20;47.30;;;;;;4969688;28;96247;-74
2022/01/16 06:47:08;;;;;;;23.58;15.90;;;18.20;47.50;;;;;;4971301;28;92518;-74
2022/01/16 06:49:34;;;;;;;23.73;15.57;;;18.20;47.60;;;;;;4971371;28;92941;-73
2022/01/16 06:52:00;;;;;;;23.13;14.70;;;18.10;48.00;;;;;;4970652;28;93552;-74
2022/01/16 06:54:26;;;;;;;24.67;15.40;;;18.10;48.20;;;;;;4970808;28;92716;-73
2022/01/16 06:56:51;;;;;;;23.80;15.27;;;18.00;48.20;;;;;;4971016;28;92854;-73
2022/01/16 06:59:17;;;;;;;22.50;15.30;;;17.90;48.40;;;;;;4970896;28;92180;-72
2022/01/16 07:01:43;;;;;;;23.95;16.15;;;17.90;48.50;;;;;;4970583;28;96150;-74
2022/01/16 07:04:08;;;;;;;23.23;15.40;;;17.90;48.70;;;;;;4970164;28;94000;-73
2022/01/16 07:06:34;;;;;;;22.05;15.02;;;17.80;48.70;;;;;;4969508;28;94948;-73
2022/01/16 07:08:59;;;;;;;23.27;15.40;;;17.80;48.80;;;;;;4970995;28;93050;-72
2022/01/16 07:11:25;;;;;;;20.52;14.32;;;17.70;49.00;;;;;;4970410;28;107828;-73
2022/01/16 07:13:51;;;;;;;23.38;16.27;;;17.70;49.20;;;;;;4970311;28;99113;-74
2022/01/16 07:16:16;;;;;;;25.00;16.48;;;17.60;49.30;;;;;;4970396;28;92538;-74
2022/01/16 07:18:42;;;;;;;24.30;16.23;;;17.60;49.60;;;;;;4969947;28;92674;-72
2022/01/16 07:21:13;;;;;;;22.52;15.25;;;17.50;49.70;;;;;;4969423;28;93978;-73
2022/01/16 07:23:41;;;;;;;23.15;15.82;;;17.50;49.70;;;;;;4970050;28;93473;-73
2022/01/16 07:26:06;;;;;;;23.67;16.08;;;17.40;49.70;;;;;;4970392;28;93049;-74
2022/01/16 07:28:32;;;;;;;22.00;15.43;;;17.40;49.90;;;;;;4969120;28;93966;-74
2022/01/16 07:30:58;;;;;;;24.83;16.58;;;17.40;50.00;;;;;;4969091;28;95163;-73
2022/01/16 07:33:24;;;;;;;21.63;15.43;;;17.40;50.00;;;;;;4970446;28;94027;-74
2022/01/16 07:35:50;;;;;;;23.40;15.70;;;17.30;50.10;;;;;;4970513;28;92563;-74
2022/01/16 07:38:15;;;;;;;25.88;15.95;;;17.30;50.30;;;;;;4970874;28;92858;-73
2022/01/16 07:40:41;;;;;;;22.75;15.43;;;17.30;50.40;;;;;;4970785;28;93129;-74
2022/01/16 07:43:07;;;;;;;25.83;16.38;;;17.30;50.40;;;;;;4970355;28;94071;-71
2022/01/16 07:45:33;;;;;;;22.17;15.50;;;17.20;50.50;;;;;;4972006;28;92911;-74
2022/01/16 07:47:59;;;;;;;22.48;15.68;;;17.20;50.60;;;;;;4975116;28;91753;-73
2022/01/16 08:59:29;;;;;;;20.67;13.50;;;17.20;51.10;;;;;;3851056;22;97207;-72
2022/01/16 09:01:55;;;;;;;18.75;13.27;;;17.20;51.20;;;;;;4968905;28;93152;-73
2022/01/16 09:04:21;;;;;;;17.45;13.10;;;17.20;51.10;;;;;;4969007;28;94407;-72
2022/01/16 09:06:46;;;;;;;17.55;13.23;;;17.10;51.00;;;;;;4968858;28;93465;-73
2022/01/16 09:09:12;;;;;;;18.75;13.38;;;17.20;51.00;;;;;;4970534;28;92849;-73
2022/01/16 09:11:38;;;;;;;16.80;12.63;;;17.20;51.00;;;;;;4969823;28;92996;-73
2022/01/16 09:14:04;;;;;;;18.13;12.68;;;17.10;50.90;;;;;;4967470;28;98209;-74
2022/01/16 09:16:30;;;;;;;18.38;13.05;;;17.10;50.90;;;;;;4968668;28;96616;-74
2022/01/16 09:18:56;;;;;;;16.17;12.40;;;17.10;51.00;;;;;;4972433;28;92533;-73
2022/01/16 09:21:22;;;;;;;16.38;11.95;;;17.10;50.80;;;;;;4973243;28;93006;-73
2022/01/16 09:23:49;;;;;;;15.00;11.60;;;17.10;50.80;;;;;;4972363;28;96866;-73
2022/01/16 09:26:16;;;;;;;17.45;12.13;;;17.10;50.90;;;;;;4972411;28;92856;-73
2022/01/16 09:28:42;;;;;;;15.68;11.73;;;17.10;50.80;;;;;;4972353;28;92971;-74
2022/01/16 09:31:08;;;;;;;17.80;12.10;;;17.10;50.80;;;;;;4973429;28;92157;-74
2022/01/16 09:33:34;;;;;;;17.35;12.32;;;17.10;50.90;;;;;;4972722;28;93087;-74
2022/01/16 09:36:01;;;;;;;16.02;11.55;;;17.10;50.90;;;;;;4972266;28;94077;-72
2022/01/16 09:38:28;;;;;;;15.75;11.20;;;17.10;50.90;;;;;;4971581;28;94942;-72
2022/01/16 09:40:55;;;;;;;18.80;11.82;;;17.10;50.80;;;;;;4971838;28;93005;-73
2022/01/16 09:43:22;;;;;;;15.20;10.65;;;17.10;50.80;;;;;;4972043;28;94140;-72
2022/01/16 09:45:48;;;;;;;15.73;11.25;;;17.10;50.80;;;;;;4971682;28;92826;-73
2022/01/16 09:48:15;;;;;;;15.80;11.82;;;17.10;50.80;;;;;;4972164;28;92501;-73
2022/01/16 09:50:41;;;;;;;14.35;10.38;;;17.10;50.80;;;;;;4972901;28;92958;-72
2022/01/16 09:53:06;;;;;;;14.88;11.00;;;17.10;50.80;;;;;;4971499;28;94161;-73
2022/01/16 09:55:32;;;;;;;14.20;10.45;;;17.00;50.70;;;;;;4972221;28;93324;-71
2022/01/16 09:57:59;;;;;;;13.68;10.60;;;17.00;50.80;;;;;;4971874;28;92801;-72
2022/01/16 10:00:25;;;;;;;14.68;10.07;;;17.00;50.80;;;;;;4971870;28;93049;-72
2022/01/16 10:02:51;;;;;;;13.88;10.40;;;17.00;50.70;;;;;;4968676;28;96436;-73
2022/01/16 10:05:27;;;;;;;31.67;10.57;;;17.00;50.70;;;;;;4971964;28;95331;-73
2022/01/16 10:07:54;;;;;;;17.55;10.35;;;17.00;51.30;;;;;;4972259;28;92918;-69
2022/01/16 10:10:23;;;;;;;18.45;9.98;;;17.00;51.40;;;;;;4972411;28;93069;-71
2022/01/16 10:12:51;;;;;;;17.42;9.98;;;17.00;51.60;;;;;;4971376;28;93051;-69
2022/01/16 10:15:22;;;;;;;17.35;10.15;;;17.00;51.90;;;;;;4972401;28;93503;-72
2022/01/16 10:17:50;;;;;;;14.43;9.20;;;17.00;51.80;;;;;;4971591;28;92629;-76
2022/01/16 10:20:17;;;;;;;17.30;8.75;;;17.10;51.60;;;;;;4972969;28;92134;-72
2022/01/16 10:22:55;;;;;;;15.98;8.98;;;17.10;51.60;;;;;;4971070;28;93169;-74
2022/01/16 10:25:44;;;;;;;14.40;8.50;;;17.30;51.60;;;;;;4972150;28;92963;-72
2022/01/16 10:28:22;;;;;;;12.43;8.80;;;17.40;51.60;;;;;;4970792;28;95012;-72
2022/01/16 10:30:53;;;;;;;14.10;7.90;;;17.50;51.50;;;;;;4971190;28;92456;-73
2022/01/16 10:33:22;;;;;;;11.40;8.27;;;17.60;51.40;;;;;;4971539;28;93138;-73
2022/01/16 10:35:51;;;;;;;13.95;7.90;;;17.70;51.40;;;;;;4971435;28;92804;-73
2022/01/16 10:38:28;;;;;;;11.68;7.40;;;17.70;51.40;;;;;;4972098;28;92542;-73
2022/01/16 10:40:55;;;;;;;12.95;7.40;;;17.80;51.30;;;;;;4971535;28;92529;-74
2022/01/16 10:43:40;;;;;;;13.85;7.55;;;17.90;51.30;;;;;;4971345;28;93175;-75
2022/01/16 10:46:06;;;;;;;11.35;7.30;;;17.90;51.40;;;;;;4970306;28;97255;-74
2022/01/16 10:48:32;;;;;;;12.30;7.00;;;18.00;51.40;;;;;;4972253;28;92924;-73
2022/01/16 10:51:00;;;;;;;10.13;6.57;;;18.00;51.40;;;;;;4973595;28;92507;-73
2022/01/16 10:53:28;;;;;;;11.68;7.15;;;18.00;51.40;;;;;;4973598;28;94918;-72
2022/01/16 10:56:04;;;;;;;24.10;7.57;;;18.00;51.40;;;;;;4975433;28;96405;-74
2022/01/16 10:58:41;;;;;;;16.05;6.78;;;18.00;52.40;;;;;;4974174;28;92573;-72
2022/01/16 11:01:16;;;;;;;12.75;6.40;;;18.10;53.00;;;;;;4976836;28;92874;-73
2022/01/16 11:03:45;;;;;;;12.05;6.80;;;18.10;53.20;;;;;;4972775;28;93226;-71
2022/01/16 11:06:12;;;;;;;19.92;6.75;;;18.10;53.40;;;;;;4970586;28;92687;-70
2022/01/16 11:08:38;;;;;;;14.88;6.25;;;18.10;53.60;;;;;;4971828;28;93131;-73
2022/01/16 11:11:06;;;;;;;15.60;7.00;;;18.10;53.80;;;;;;4972008;28;92256;-71
2022/01/16 11:13:34;;;;;;;13.88;6.40;;;18.20;53.80;;;;;;4971217;28;92967;-72
2022/01/16 11:16:03;;;;;;;22.77;6.30;;;18.20;53.70;;;;;;4971359;28;92619;-74
2022/01/16 11:18:30;;;;;;;13.40;6.15;;;18.10;53.80;;;;;;4969795;28;94934;-73
2022/01/16 11:21:13;;;;;;;16.33;6.22;;;18.10;53.70;;;;;;4971455;28;93107;-73
2022/01/16 11:26:09;;;;;;;15.07;5.40;;;18.10;54.20;;;;;;4971047;28;92529;-74
2022/01/16 11:28:35;;;;;;;14.55;5.68;;;18.10;54.20;;;;;;4970967;28;92579;-74
2022/01/16 11:31:12;;;;;;;12.63;5.70;;;18.10;54.30;;;;;;4971139;28;92877;-73
2022/01/16 11:33:39;;;;;;;13.35;5.35;;;18.10;54.50;;;;;;4969160;28;93249;-74
2022/01/16 11:36:12;;;;;;;13.77;5.57;;;18.20;54.50;;;;;;4971483;28;92146;-73
2022/01/16 11:38:45;;;;;;;11.82;5.63;;;18.10;54.50;;;;;;4971510;28;92586;-72
2022/01/16 11:41:19;;;;;;;16.30;5.07;;;18.10;54.60;;;;;;4970281;28;92632;-74
2022/01/16 11:43:51;;;;;;;15.38;5.78;;;18.20;54.60;;;;;;4969716;28;96086;-78
2022/01/16 11:46:20;;;;;;;10.98;5.28;;;18.20;54.40;;;;;;4971228;28;95237;-73
2022/01/16 11:48:51;;;;;;;12.02;5.60;;;18.20;53.90;;;;;;4970671;28;92536;-73
2022/01/16 11:51:35;;;;;;;11.98;5.20;;;18.20;53.60;;;;;;4971153;28;92729;-70
2022/01/16 11:54:20;;;;;;;15.10;5.35;;;18.20;53.40;;;;;;4971059;28;93407;-68
2022/01/16 11:56:45;;;;;;;15.50;5.60;;;18.20;53.30;;;;;;4970223;28;93136;-69
2022/01/16 11:59:24;;;;;;;11.68;6.10;;;18.20;53.40;;;;;;4970295;28;92914;-70
2022/01/16 12:02:09;;;;;;;17.15;5.88;;;18.20;53.40;;;;;;4970611;28;92183;-69
2022/01/16 12:04:36;;;;;;;19.00;6.15;;;18.20;53.60;;;;;;4971454;28;93091;-70
2022/01/16 12:07:20;;;;;;;17.80;5.72;;;18.20;53.70;;;;;;4970247;28;94422;-70
2022/01/16 12:09:52;;;;;;;10.60;5.43;;;18.20;54.00;;;;;;4967670;28;95341;-70
2022/01/16 12:12:18;;;;;;;12.52;4.82;;;18.20;54.10;;;;;;4971142;28;93045;-69
2022/01/16 12:14:53;;;;;;;16.58;5.68;;;18.20;54.20;;;;;;4970034;28;93319;-71
2022/01/16 12:17:40;;;;;;;11.88;5.97;;;18.20;54.20;;;;;;4970674;28;94756;-68
2022/01/16 12:20:15;;;;;;;17.33;5.45;;;18.20;54.30;;;;;;4969948;28;94347;-68
2022/01/16 12:22:55;;;;;;;13.77;5.13;;;18.20;54.40;;;;;;4970220;28;92932;-68
2022/01/16 12:25:32;;;;;;;15.15;4.72;;;18.30;54.40;;;;;;4969609;28;94106;-72
2022/01/16 12:28:04;;;;;;;15.55;5.50;;;18.30;54.40;;;;;;4970091;28;93370;-69
2022/01/16 12:30:35;;;;;;;14.23;5.28;;;18.30;54.40;;;;;;4970385;28;92581;-69
2022/01/16 12:33:09;;;;;;;14.02;4.93;;;18.30;54.40;;;;;;4969341;28;92474;-72
2022/01/16 12:35:55;;;;;;;12.48;5.38;;;18.30;54.20;;;;;;4969073;28;95628;-72
2022/01/16 12:38:27;;;;;;;17.27;5.18;;;18.40;54.20;;;;;;4970109;28;95815;-71
2022/01/16 12:41:03;;;;;;;14.93;5.57;;;18.40;54.10;;;;;;4970765;28;92603;-70
2022/01/16 12:43:40;;;;;;;14.20;5.38;;;18.40;54.00;;;;;;4970761;28;93035;-73
2022/01/16 12:46:11;;;;;;;13.98;6.35;;;18.40;54.00;;;;;;4968382;28;93104;-73
2022/01/16 12:48:46;;;;;;;12.98;5.93;;;18.40;54.10;;;;;;4969471;28;92807;-72
2022/01/16 12:51:15;;;;;;;21.15;5.57;;;18.30;54.10;;;;;;4971014;28;93177;-72
2022/01/16 12:53:45;;;;;;;16.88;5.25;;;18.40;54.40;;;;;;4974555;28;92138;-73
2022/01/16 12:56:39;;;;;;;16.58;5.93;;;18.40;54.60;;;;;;4975190;28;93066;-72
2022/01/16 12:59:05;;;;;;;12.20;5.20;;;18.50;54.80;;;;;;4976313;28;93073;-73
2022/01/16 13:01:32;;;;;;;10.23;5.32;;;18.50;54.70;;;;;;4975252;28;94923;-71
2022/01/16 13:03:58;;;;;;;10.88;5.03;;;18.50;54.60;;;;;;4973999;28;92964;-71
2022/01/16 13:06:34;;;;;;;10.32;5.53;;;18.60;54.60;;;;;;4974070;28;93493;-72
2022/01/16 13:09:11;;;;;;;13.63;5.95;;;18.70;54.50;;;;;;4972866;28;92960;-71
2022/01/16 13:11:41;;;;;;;13.18;5.95;;;18.70;54.50;;;;;;4973854;28;92528;-71
2022/01/16 13:14:10;;;;;;;18.05;5.63;;;18.70;54.30;;;;;;4972954;28;92534;-72
2022/01/16 13:16:41;;;;;;;12.73;5.50;;;18.80;54.30;;;;;;4972883;28;94480;-72
2022/01/16 13:19:11;;;;;;;10.20;5.25;;;18.90;54.20;;;;;;4973315;28;92461;-72
2022/01/16 13:21:48;;;;;;;12.85;5.70;;;18.90;54.00;;;;;;4970788;28;93421;-71
2022/01/16 13:24:32;;;;;;;10.80;4.95;;;19.00;54.00;;;;;;4972706;28;93150;-70
2022/01/16 13:26:59;;;;;;;12.95;5.22;;;19.00;53.90;;;;;;4971190;28;96478;-70
2022/01/16 13:29:25;;;;;;;11.35;5.07;;;19.00;53.80;;;;;;4973223;28;95091;-71
2022/01/16 13:31:51;;;;;;;11.85;5.70;;;19.00;53.80;;;;;;4972891;28;92442;-69
2022/01/16 13:34:42;;;;;;;10.95;5.90;;;19.10;53.70;;;;;;4972744;28;92419;-70
2022/01/16 13:37:13;;;;;;;8.85;5.60;;;19.10;53.50;;;;;;4967463;28;93723;-70
2022/01/16 13:39:43;;;;;;;13.25;5.60;;;19.10;53.50;;;;;;4973836;28;93268;-70
2022/01/16 13:42:41;;;;;;;11.50;5.78;;;19.10;53.60;;;;;;4972052;28;93084;-68
2022/01/16 13:45:45;;;;;;;9.25;5.97;;;19.10;53.60;;;;;;4969925;28;91920;-71
2022/01/16 13:48:16;;;;;;;17.30;6.18;;;19.10;53.70;;;;;;4932560;28;95038;-69
2022/01/16 13:50:48;;;;;;;20.60;6.38;;;19.20;54.00;;;;;;4967231;28;93181;-71
2022/01/16 13:53:21;;;;;;;16.33;6.10;;;19.20;53.50;;;;;;4970007;28;95570;-71
2022/01/16 13:55:49;;;;;;;12.55;6.00;;;19.20;53.20;;;;;;4971321;28;92873;-71
2022/01/16 13:58:17;;;;;;;11.23;6.15;;;19.20;53.00;;;;;;4971203;28;94002;-70
2022/01/16 14:00:43;;;;;;;13.93;5.78;;;19.30;53.00;;;;;;4971990;28;92838;-72
2022/01/16 14:03:20;;;;;;;17.15;5.82;;;19.30;52.90;;;;;;4971571;28;92890;-71
2022/01/16 14:05:52;;;;;;;14.93;5.95;;;19.30;52.90;;;;;;4971614;28;92904;-71
2022/01/16 14:08:29;;;;;;;12.65;6.13;;;19.30;53.00;;;;;;4972064;28;92892;-70
2022/01/16 14:11:08;;;;;;;11.48;6.47;;;19.30;53.00;;;;;;4969960;28;93096;-70
2022/01/16 14:13:33;;;;;;;18.33;6.22;;;19.30;53.00;;;;;;4972568;28;92862;-71
2022/01/16 14:16:13;;;;;;;13.43;6.40;;;19.30;52.90;;;;;;4971946;28;92439;-71
2022/01/16 14:19:04;;;;;;;15.02;6.35;;;19.30;52.70;;;;;;4969002;28;97022;-71
2022/01/16 14:24:07;;;;;;;11.88;6.72;;;19.30;52.70;;;;;;4971175;28;92653;-70
2022/01/16 14:26:32;;;;;;;13.18;6.18;;;19.20;52.70;;;;;;4971319;28;92967;-71
2022/01/16 14:28:59;;;;;;;12.43;6.32;;;19.20;52.70;;;;;;4970833;28;102471;-70
2022/01/16 14:31:24;;;;;;;13.43;6.45;;;19.30;52.60;;;;;;4969770;28;97961;-71
2022/01/16 14:33:51;;;;;;;11.63;5.90;;;19.30;52.50;;;;;;4971561;28;92896;-71
2022/01/16 14:36:18;;;;;;;14.65;7.13;;;19.30;52.40;;;;;;4971831;28;92195;-71
2022/01/16 14:38:43;;;;;;;10.45;5.75;;;19.30;52.30;;;;;;4971227;28;109539;-70
2022/01/16 14:41:12;;;;;;;12.70;6.50;;;19.20;53.20;;;;;;4971533;28;92748;-71
2022/01/16 14:43:57;;;;;;;12.70;6.35;;;19.20;52.30;;;;;;4970676;28;94990;-71
2022/01/16 14:46:25;;;;;;;10.65;6.05;;;19.20;52.20;;;;;;4971654;28;92879;-71
2022/01/16 14:48:52;;;;;;;12.80;6.25;;;19.20;52.30;;;;;;4970747;28;94141;-71
2022/01/16 14:51:19;;;;;;;12.05;6.25;;;19.20;52.10;;;;;;4970492;28;94840;-71
2022/01/16 14:53:44;;;;;;;12.90;6.20;;;19.30;52.00;;;;;;4971183;28;92521;-71
2022/01/16 14:56:12;;;;;;;12.68;6.28;;;19.30;52.00;;;;;;4972291;28;92568;-70
2022/01/16 14:58:38;;;;;;;11.75;6.40;;;19.30;51.80;;;;;;4973422;28;94053;-71
2022/01/16 15:01:04;;;;;;;12.73;6.38;;;19.30;51.70;;;;;;4975890;28;91792;-70
2022/01/16 15:03:30;;;;;;;13.93;7.07;;;19.40;51.60;;;;;;4973343;28;92450;-70
2022/01/16 15:05:56;;;;;;;12.52;6.90;;;19.40;51.50;;;;;;4971926;28;92953;-71
2022/01/16 15:08:22;;;;;;;12.25;6.78;;;19.40;51.60;;;;;;4970326;28;96129;-71
2022/01/16 15:10:49;;;;;;;13.10;6.57;;;19.40;51.60;;;;;;4970618;28;94072;-71
2022/01/16 15:13:14;;;;;;;11.02;6.47;;;19.40;51.50;;;;;;4971249;28;92876;-72
2022/01/16 15:15:40;;;;;;;11.93;6.35;;;19.40;51.60;;;;;;4971595;28;92873;-71
2022/01/16 15:18:07;;;;;;;17.10;7.28;;;19.40;51.80;;;;;;4970544;28;93156;-69
2022/01/16 15:20:35;;;;;;;21.77;6.75;;;19.40;52.20;;;;;;4971483;28;93967;-71
2022/01/16 15:23:01;;;;;;;14.93;6.13;;;19.50;52.50;;;;;;4970312;28;92697;-71
2022/01/16 15:25:29;;;;;;;8.43;5.82;;;19.50;52.80;;;;;;4970944;28;91987;-71
2022/01/16 15:27:55;;;;;;;16.23;6.43;;;19.50;52.70;;;;;;4970293;28;94116;-72
2022/01/16 15:30:21;;;;;;;26.40;6.93;;;19.50;52.80;;;;;;4969422;28;92865;-71
2022/01/16 15:32:48;;;;;;;20.77;6.82;;;19.60;52.60;;;;;;4968863;28;94949;-71
2022/01/16 15:35:15;;;;;;;15.98;6.70;;;19.60;52.80;;;;;;4971414;28;92983;-72
2022/01/16 15:37:43;;;;;;;13.63;6.53;;;19.60;52.40;;;;;;4970572;28;93161;-71
2022/01/16 15:40:13;;;;;;;11.48;6.10;;;19.70;52.20;;;;;;4971163;28;93345;-72
2022/01/16 15:42:40;;;;;;;14.52;5.63;;;19.70;52.00;;;;;;4971111;28;92543;-71
2022/01/16 15:45:07;;;;;;;10.30;5.90;;;19.70;52.00;;;;;;4971118;28;93100;-71
2022/01/16 15:47:33;;;;;;;9.98;6.20;;;19.80;51.90;;;;;;4970137;28;94711;-71
2022/01/16 15:50:00;;;;;;;14.13;6.00;;;19.80;51.80;;;;;;4970729;28;92691;-72
2022/01/16 15:52:28;;;;;;;10.73;5.45;;;19.70;51.70;;;;;;4970217;28;92818;-73
2022/01/16 15:54:53;;;;;;;14.73;5.82;;;19.70;51.90;;;;;;4970307;28;92875;-72
2022/01/16 15:57:20;;;;;;;13.13;5.30;;;19.70;51.90;;;;;;4969196;28;95436;-73
2022/01/16 15:59:46;;;;;;;8.52;5.40;;;19.70;51.90;;;;;;4968952;28;96246;-72
2022/01/16 16:02:12;;;;;;;12.45;5.65;;;19.60;52.00;;;;;;4970942;28;92972;-72
2022/01/16 16:04:37;;;;;;;8.82;4.70;;;19.60;52.00;;;;;;4970174;28;92584;-72
2022/01/16 16:07:03;;;;;;;8.48;5.13;;;19.50;51.90;;;;;;4970223;28;93310;-72
2022/01/16 16:09:29;;;;;;;9.95;4.80;;;19.50;51.90;;;;;;4970388;28;93116;-72